Time;durP1;ratioP1;P1;durP2;ratioP2;P2;SDS_P1;SDS_P2;PMS_P1;PMS_P2;Temp;Humidity;BMP_temperature;BMP_pressure;BME280_temperature;BME280_humidity;BME280_pressure;Samples;Min_cycle;Max_cycle;Signal;HPM_P1;HPM_P2
2023/03/02 00:09:16;;;;;;;0.20;0.10;;;5.70;99.90;;;;;;20989337;28;20471;-67
2023/03/02 00:19:20;;;;;;;0.20;0.10;;;5.50;99.90;;;;;;20970628;28;20421;-67
2023/03/02 00:29:25;;;;;;;0.20;0.00;;;5.30;99.90;;;;;;20987476;28;20414;-67
2023/03/02 00:39:29;;;;;;;0.20;0.10;;;5.50;99.90;;;;;;20922309;28;20404;-67
2023/03/02 00:49:35;;;;;;;0.20;0.10;;;5.60;99.90;;;;;;20969645;28;20480;-67
2023/03/02 00:59:39;;;;;;;0.20;0.10;;;5.50;99.90;;;;;;20985512;28;20394;-68
2023/03/02 01:09:45;;;;;;;0.20;0.10;;;5.40;99.90;;;;;;20984789;28;20566;-68
2023/03/02 01:19:49;;;;;;;0.20;0.10;;;5.40;99.90;;;;;;20984018;28;20398;-67
2023/03/02 01:29:54;;;;;;;0.20;0.10;;;5.40;99.90;;;;;;20940687;28;20419;-67
2023/03/02 01:39:58;;;;;;;0.20;0.10;;;5.20;99.90;;;;;;20966139;28;20857;-68
2023/03/02 01:50:14;;;;;;;0.20;0.10;;;5.20;99.90;;;;;;20981500;28;20410;-67
2023/03/02 02:00:21;;;;;;;0.20;0.10;;;5.40;99.90;;;;;;20963362;28;20451;-67
2023/03/02 02:10:28;;;;;;;0.20;0.10;;;5.50;99.90;;;;;;20980604;28;20418;-68
2023/03/02 02:20:37;;;;;;;0.20;0.10;;;5.50;99.90;;;;;;20962080;28;20428;-67
2023/03/02 02:30:43;;;;;;;0.20;0.00;;;5.70;99.90;;;;;;20978916;28;20412;-66
2023/03/02 02:40:52;;;;;;;0.20;0.00;;;6.10;99.90;;;;;;20970109;28;20406;-66
2023/03/02 02:51:00;;;;;;;0.20;0.10;;;6.30;99.90;;;;;;20972709;28;20416;-68
2023/03/02 03:01:04;;;;;;;0.20;0.00;;;6.40;99.90;;;;;;20986120;28;20390;-67
2023/03/02 03:11:11;;;;;;;0.20;0.00;;;6.30;99.90;;;;;;20994086;28;20429;-68
2023/03/02 03:21:17;;;;;;;0.20;0.10;;;6.30;99.90;;;;;;20975531;28;20417;-68
2023/03/02 03:31:22;;;;;;;0.20;0.00;;;6.40;99.90;;;;;;20973865;28;20403;-68
2023/03/02 03:41:26;;;;;;;0.20;0.03;;;6.60;99.90;;;;;;20894933;28;20483;-67
2023/03/02 03:51:34;;;;;;;0.20;0.00;;;6.80;99.90;;;;;;20972711;28;20455;-67
2023/03/02 04:01:41;;;;;;;0.20;0.10;;;6.80;99.90;;;;;;20989951;28;20410;-68
2023/03/02 04:11:48;;;;;;;0.20;0.10;;;6.70;99.90;;;;;;20989208;28;20438;-67
2023/03/02 04:21:54;;;;;;;0.20;0.10;;;6.60;99.90;;;;;;20988990;28;20468;-67
2023/03/02 04:31:59;;;;;;;0.20;0.03;;;6.50;99.90;;;;;;21013252;28;20416;-68
2023/03/02 04:42:04;;;;;;;0.20;0.10;;;6.40;99.90;;;;;;20986442;28;20764;-67
2023/03/02 04:52:09;;;;;;;0.20;0.00;;;6.50;99.90;;;;;;20986262;28;20405;-67
2023/03/02 05:02:13;;;;;;;0.20;0.00;;;6.30;99.90;;;;;;20979110;28;20943;-67
2023/03/02 05:12:20;;;;;;;0.20;0.00;;;6.30;99.90;;;;;;20984660;28;20908;-67
2023/03/02 05:22:24;;;;;;;0.20;0.10;;;6.20;99.90;;;;;;20965175;28;20544;-67
2023/03/02 05:32:29;;;;;;;0.20;0.10;;;6.10;99.90;;;;;;20978032;28;20406;-68
2023/03/02 05:42:34;;;;;;;0.20;0.00;;;6.10;99.90;;;;;;20981480;28;20801;-68
2023/03/02 05:52:39;;;;;;;0.20;0.00;;;6.00;99.90;;;;;;20963112;28;20523;-67
2023/03/02 06:02:43;;;;;;;0.20;0.00;;;5.90;99.90;;;;;;20980069;28;20412;-66
2023/03/02 06:12:48;;;;;;;0.20;0.10;;;5.90;99.90;;;;;;20979216;28;20441;-67
2023/03/02 06:22:52;;;;;;;0.20;0.10;;;5.90;99.90;;;;;;20960705;28;20492;-66
2023/03/02 06:32:58;;;;;;;0.20;0.00;;;5.80;99.90;;;;;;20967036;28;20442;-66
2023/03/02 06:43:02;;;;;;;0.20;0.10;;;5.80;99.90;;;;;;20905717;28;20943;-68
2023/03/02 06:53:08;;;;;;;0.20;0.10;;;5.80;99.90;;;;;;20973920;28;20430;-66
2023/03/02 07:03:12;;;;;;;0.20;0.10;;;5.90;99.90;;;;;;20869425;28;20410;-67
2023/03/02 07:13:17;;;;;;;0.20;0.10;;;5.90;99.90;;;;;;20871986;28;20809;-65
2023/03/02 07:23:22;;;;;;;0.20;0.10;;;5.80;99.90;;;;;;20893951;28;20418;-67
2023/03/02 07:33:27;;;;;;;0.20;0.10;;;5.90;99.90;;;;;;20972355;28;20467;-67
2023/03/02 07:43:35;;;;;;;0.20;0.00;;;5.80;99.90;;;;;;20946432;28;20452;-69
2023/03/02 07:53:40;;;;;;;0.20;0.10;;;6.00;99.90;;;;;;20986743;28;20873;-68
2023/03/02 08:03:44;;;;;;;0.20;0.10;;;6.20;99.90;;;;;;20986202;28;20892;-69
2023/03/02 08:13:50;;;;;;;0.20;0.00;;;6.40;99.90;;;;;;20985314;28;20506;-68
2023/03/02 08:23:53;;;;;;;0.20;0.00;;;6.60;99.90;;;;;;20950616;28;20445;-66
2023/03/02 08:33:59;;;;;;;0.20;0.00;;;6.90;99.90;;;;;;20984243;28;20410;-68
2023/03/02 08:44:03;;;;;;;0.20;0.00;;;7.20;99.90;;;;;;20964197;28;20844;-71
2023/03/02 08:54:08;;;;;;;0.20;0.10;;;7.40;99.90;;;;;;20982130;28;20407;-67
2023/03/02 09:04:12;;;;;;;0.20;0.00;;;7.40;99.90;;;;;;20981451;28;20413;-73
2023/03/02 09:14:18;;;;;;;0.20;0.10;;;7.20;99.90;;;;;;20982119;28;20448;-67
2023/03/02 09:24:21;;;;;;;0.20;0.10;;;7.80;99.90;;;;;;20980256;28;20447;-68
2023/03/02 09:34:27;;;;;;;0.20;0.10;;;8.50;99.90;;;;;;20978580;28;20454;-69
2023/03/02 09:44:45;;;;;;;0.20;0.00;;;9.20;99.90;;;;;;20976693;28;20406;-69
2023/03/02 09:54:51;;;;;;;0.20;0.00;;;9.70;99.90;;;;;;20969911;28;20417;-69
2023/03/02 10:04:58;;;;;;;0.20;0.10;;;10.00;99.90;;;;;;20942315;28;20401;-68
2023/03/02 10:15:11;;;;;;;0.20;0.00;;;9.80;99.90;;;;;;20958484;28;20440;-68
2023/03/02 10:25:30;;;;;;;0.20;0.00;;;9.80;99.90;;;;;;20958054;28;20398;-68
2023/03/02 10:35:38;;;;;;;0.20;0.10;;;10.30;99.90;;;;;;20956381;28;20761;-68
2023/03/02 10:45:42;;;;;;;0.20;0.10;;;10.60;99.90;;;;;;20925084;28;20897;-68
2023/03/02 10:55:49;;;;;;;0.20;0.10;;;11.10;99.90;;;;;;20944321;28;20433;-68
2023/03/02 11:05:53;;;;;;;0.20;0.00;;;11.20;99.90;;;;;;20956825;28;20398;-68
2023/03/02 11:15:59;;;;;;;0.20;0.10;;;11.10;99.90;;;;;;20944051;28;20901;-68
2023/03/02 11:26:09;;;;;;;0.20;0.00;;;11.80;99.90;;;;;;20970017;28;20407;-68
2023/03/02 11:36:18;;;;;;;0.20;0.10;;;11.50;99.90;;;;;;20900757;28;20412;-69
2023/03/02 11:46:25;;;;;;;0.20;0.00;;;11.60;99.90;;;;;;20902425;28;20423;-68
2023/03/02 11:56:33;;;;;;;0.20;0.00;;;11.20;99.90;;;;;;20930048;28;20458;-68
2023/03/02 12:06:40;;;;;;;0.20;0.10;;;10.90;99.90;;;;;;20968471;28;20390;-67
2023/03/02 12:16:46;;;;;;;0.20;0.10;;;11.10;99.90;;;;;;20985747;28;20476;-69
2023/03/02 12:27:01;;;;;;;0.20;0.00;;;11.60;99.90;;;;;;20966875;28;20402;-66
2023/03/02 12:37:16;;;;;;;0.20;0.10;;;12.40;99.90;;;;;;21049892;28;20412;-66
2023/03/02 12:47:25;;;;;;;0.20;0.03;;;13.30;99.90;;;;;;21066022;28;20416;-69
2023/03/02 12:57:32;;;;;;;0.20;0.03;;;14.30;99.90;;;;;;21031254;28;20409;-69
2023/03/02 13:07:40;;;;;;;0.20;0.10;;;15.00;99.90;;;;;;20982695;28;20757;-67
2023/03/02 13:17:53;;;;;;;0.20;0.10;;;16.50;99.90;;;;;;20980631;28;20497;-68
2023/03/02 13:27:59;;;;;;;0.20;0.10;;;16.50;99.90;;;;;;20972679;28;20397;-67
2023/03/02 13:38:06;;;;;;;0.20;0.00;;;17.10;99.90;;;;;;20893477;28;20411;-68
2023/03/02 13:48:15;;;;;;;0.20;0.00;;;17.70;99.90;;;;;;20894330;28;20487;-67
2023/03/02 13:58:22;;;;;;;0.20;0.00;;;17.80;99.90;;;;;;20938474;28;20413;-69
2023/03/02 14:08:27;;;;;;;0.20;0.00;;;14.90;99.90;;;;;;20943217;28;20410;-69
2023/03/02 14:18:38;;;;;;;0.20;0.00;;;14.30;99.90;;;;;;20977855;28;20475;-67
2023/03/02 14:28:41;;;;;;;0.20;0.10;;;14.30;99.90;;;;;;20976210;28;20403;-68
2023/03/02 14:38:47;;;;;;;0.20;0.00;;;14.40;99.90;;;;;;20971374;28;20475;-67
2023/03/02 14:48:51;;;;;;;0.20;0.00;;;14.00;99.90;;;;;;20951697;28;20473;-67
2023/03/02 14:59:00;;;;;;;0.20;0.10;;;14.80;99.90;;;;;;20953179;28;20386;-64
2023/03/02 15:09:04;;;;;;;0.20;0.03;;;14.90;99.90;;;;;;20969071;28;20394;-66
2023/03/02 15:19:09;;;;;;;0.20;0.10;;;14.50;99.90;;;;;;20968209;28;20447;-67
2023/03/02 15:29:13;;;;;;;0.20;0.10;;;14.10;99.90;;;;;;20967305;28;20922;-68
2023/03/02 15:39:18;;;;;;;0.20;0.00;;;13.90;99.90;;;;;;20966905;28;20790;-67
2023/03/02 15:49:23;;;;;;;0.20;0.10;;;13.80;99.90;;;;;;20963847;28;20425;-69
2023/03/02 15:59:30;;;;;;;0.20;0.00;;;13.50;99.90;;;;;;20963983;28;20695;-67
2023/03/02 16:09:34;;;;;;;0.20;0.00;;;14.20;99.90;;;;;;20982274;28;20410;-67
2023/03/02 16:19:39;;;;;;;0.20;0.10;;;13.80;99.90;;;;;;20979502;28;20413;-68
2023/03/02 16:29:44;;;;;;;0.20;0.00;;;13.40;99.90;;;;;;20962877;28;21043;-66
2023/03/02 16:39:49;;;;;;;0.20;0.10;;;13.00;99.90;;;;;;20999356;28;20396;-66
2023/03/02 16:49:53;;;;;;;0.20;0.00;;;12.60;99.90;;;;;;21012081;28;20888;-66
2023/03/02 16:59:58;;;;;;;0.20;0.00;;;12.40;99.90;;;;;;20981745;28;20406;-68
2023/03/02 17:10:02;;;;;;;0.20;0.10;;;12.30;99.90;;;;;;21015620;28;20415;-67
2023/03/02 17:20:11;;;;;;;0.20;0.10;;;11.70;99.90;;;;;;21056061;28;20411;-67
2023/03/02 17:30:15;;;;;;;0.20;0.10;;;11.30;99.90;;;;;;20978301;28;20956;-68
2023/03/02 17:40:21;;;;;;;0.20;0.00;;;11.80;99.90;;;;;;20973008;28;20410;-65
2023/03/02 17:50:26;;;;;;;0.20;0.10;;;11.10;99.90;;;;;;20937500;28;20407;-66
2023/03/02 18:00:32;;;;;;;0.20;0.10;;;10.70;99.90;;;;;;20954833;28;20403;-67
2023/03/02 18:10:36;;;;;;;0.20;0.10;;;10.50;99.90;;;;;;20971970;28;20416;-71
2023/03/02 18:20:41;;;;;;;0.20;0.10;;;10.40;99.90;;;;;;20969918;28;20428;-67
2023/03/02 18:30:45;;;;;;;0.20;0.10;;;10.20;99.90;;;;;;20945700;28;20509;-68
2023/03/02 18:40:51;;;;;;;0.20;0.10;;;10.00;99.90;;;;;;20972312;28;20449;-67
2023/03/02 18:50:56;;;;;;;0.20;0.00;;;9.40;99.90;;;;;;20955131;28;20702;-67
2023/03/02 19:01:02;;;;;;;0.20;0.10;;;9.20;99.90;;;;;;20973921;28;20471;-68
2023/03/02 19:11:06;;;;;;;0.20;0.10;;;9.00;99.90;;;;;;20956289;28;20422;-65
2023/03/02 19:21:11;;;;;;;0.20;0.10;;;9.20;99.90;;;;;;20955529;28;20394;-67
2023/03/02 19:31:16;;;;;;;0.20;0.00;;;8.90;99.90;;;;;;20968013;28;20540;-66
2023/03/02 19:41:22;;;;;;;0.20;0.00;;;8.40;99.90;;;;;;20945118;28;20913;-68
2023/03/02 19:51:26;;;;;;;0.20;0.00;;;8.50;99.90;;;;;;20964219;28;20441;-68
2023/03/02 20:01:31;;;;;;;0.20;0.00;;;8.60;99.90;;;;;;20964804;28;20417;-66
2023/03/02 20:11:37;;;;;;;0.20;0.00;;;8.20;99.90;;;;;;20982459;28;20433;-66
2023/03/02 20:21:42;;;;;;;0.20;0.10;;;8.00;99.90;;;;;;20974284;28;20956;-68
2023/03/02 20:31:46;;;;;;;0.20;0.10;;;8.10;99.90;;;;;;20979917;28;20414;-68
2023/03/02 20:41:51;;;;;;;0.20;0.00;;;8.10;99.90;;;;;;20962115;28;20483;-65
2023/03/02 20:51:57;;;;;;;0.20;0.10;;;7.90;99.90;;;;;;20960261;28;20457;-67
2023/03/02 21:02:05;;;;;;;0.20;0.10;;;7.90;99.90;;;;;;20959682;28;20395;-66
2023/03/02 21:12:10;;;;;;;0.20;0.10;;;7.90;99.90;;;;;;20974474;28;20422;-66
2023/03/02 21:22:15;;;;;;;0.20;0.10;;;8.00;99.90;;;;;;20954719;28;20420;-66
2023/03/02 21:32:19;;;;;;;0.20;0.10;;;7.80;99.90;;;;;;20884252;28;20424;-67
2023/03/02 21:42:26;;;;;;;0.20;0.10;;;7.70;99.90;;;;;;20975682;28;20738;-67
2023/03/02 21:52:30;;;;;;;0.20;0.00;;;7.70;99.90;;;;;;20979397;28;20519;-68
2023/03/02 22:02:35;;;;;;;0.20;0.10;;;7.60;99.90;;;;;;20953233;28;20402;-68
2023/03/02 22:12:40;;;;;;;0.20;0.00;;;7.60;99.90;;;;;;20977112;28;20624;-66
2023/03/02 22:22:46;;;;;;;0.20;0.10;;;7.60;99.90;;;;;;20952149;28;20444;-67
2023/03/02 22:32:50;;;;;;;0.20;0.10;;;7.50;99.90;;;;;;20959055;28;20468;-68
2023/03/02 22:43:09;;;;;;;0.20;0.00;;;7.50;99.90;;;;;;20959288;28;20448;-67
2023/03/02 22:53:29;;;;;;;0.20;0.00;;;7.40;99.90;;;;;;20977847;28;20811;-66
2023/03/02 23:03:43;;;;;;;0.20;0.07;;;7.40;99.90;;;;;;20959823;28;21129;-66
2023/03/02 23:13:47;;;;;;;0.20;0.00;;;7.30;99.90;;;;;;20986410;28;20464;-67
2023/03/02 23:23:53;;;;;;;0.20;0.03;;;7.30;99.90;;;;;;20974043;28;20395;-67
2023/03/02 23:33:57;;;;;;;0.20;0.00;;;7.20;99.90;;;;;;20972865;28;20475;-69
2023/03/02 23:44:02;;;;;;;0.20;0.00;;;7.10;99.90;;;;;;21005894;28;20390;-68
2023/03/02 23:54:06;;;;;;;0.20;0.10;;;7.10;99.90;;;;;;20989803;28;20426;-67
